sensor_id;sensor_type;location;lat;lon;timestamp;temperature;humidity
21815;DHT22;11069;48.988;8.450;2023-12-20T00:00:54;5.80;99.90
21815;DHT22;11069;48.988;8.450;2023-12-20T00:03:19;5.70;99.90
21815;DHT22;11069;48.988;8.450;2023-12-20T00:05:45;5.70;99.90
21815;DHT22;11069;48.988;8.450;2023-12-20T00:08:11;5.70;99.90
21815;DHT22;11069;48.988;8.450;2023-12-20T00:10:36;5.70;99.90
21815;DHT22;11069;48.988;8.450;2023-12-20T00:13:02;5.70;99.90
21815;DHT22;11069;48.988;8.450;2023-12-20T00:15:28;5.70;99.90
21815;DHT22;11069;48.988;8.450;2023-12-20T00:17:53;5.70;99.90
21815;DHT22;11069;48.988;8.450;2023-12-20T00:20:19;5.80;99.90
21815;DHT22;11069;48.988;8.450;2023-12-20T00:22:44;5.70;99.90
21815;DHT22;11069;48.988;8.450;2023-12-20T00:25:10;5.70;99.90
21815;DHT22;11069;48.988;8.450;2023-12-20T00:27:35;5.70;99.90
21815;DHT22;11069;48.988;8.450;2023-12-20T00:30:01;5.70;99.90
21815;DHT22;11069;48.988;8.450;2023-12-20T00:32:27;5.70;99.90
21815;DHT22;11069;48.988;8.450;2023-12-20T00:34:52;5.70;99.90
21815;DHT22;11069;48.988;8.450;2023-12-20T00:37:18;5.70;99.90
21815;DHT22;11069;48.988;8.450;2023-12-20T00:39:43;5.70;99.90
21815;DHT22;11069;48.988;8.450;2023-12-20T00:42:09;5.70;99.90
21815;DHT22;11069;48.988;8.450;2023-12-20T00:44:34;5.70;99.90
21815;DHT22;11069;48.988;8.450;2023-12-20T00:47:00;5.70;99.90
21815;DHT22;11069;48.988;8.450;2023-12-20T00:49:26;5.80;99.90
21815;DHT22;11069;48.988;8.450;2023-12-20T00:51:52;5.70;99.90
21815;DHT22;11069;48.988;8.450;2023-12-20T00:54:18;5.70;99.90
21815;DHT22;11069;48.988;8.450;2023-12-20T00:56:43;5.70;99.90
21815;DHT22;11069;48.988;8.450;2023-12-20T00:59:09;5.70;99.90
21815;DHT22;11069;48.988;8.450;2023-12-20T01:01:35;5.80;99.90
21815;DHT22;11069;48.988;8.450;2023-12-20T01:04:00;5.80;99.90
21815;DHT22;11069;48.988;8.450;2023-12-20T01:06:26;5.80;99.90
21815;DHT22;11069;48.988;8.450;2023-12-20T01:08:51;5.80;99.90
21815;DHT22;11069;48.988;8.450;2023-12-20T01:11:17;5.80;99.90
21815;DHT22;11069;48.988;8.450;2023-12-20T01:13:42;5.80;99.90
21815;DHT22;11069;48.988;8.450;2023-12-20T01:16:11;5.80;99.90
21815;DHT22;11069;48.988;8.450;2023-12-20T01:18:37;5.80;99.90
21815;DHT22;11069;48.988;8.450;2023-12-20T01:21:03;5.90;99.90
21815;DHT22;11069;48.988;8.450;2023-12-20T01:23:29;5.80;99.90
21815;DHT22;11069;48.988;8.450;2023-12-20T01:25:55;5.80;99.90
21815;DHT22;11069;48.988;8.450;2023-12-20T01:28:20;5.80;99.90
21815;DHT22;11069;48.988;8.450;2023-12-20T01:30:46;5.80;99.90
21815;DHT22;11069;48.988;8.450;2023-12-20T01:33:11;5.80;99.90
21815;DHT22;11069;48.988;8.450;2023-12-20T01:35:37;5.80;99.90
21815;DHT22;11069;48.988;8.450;2023-12-20T01:38:03;5.90;99.90
21815;DHT22;11069;48.988;8.450;2023-12-20T01:40:28;5.80;99.90
21815;DHT22;11069;48.988;8.450;2023-12-20T01:43:09;5.90;99.90
21815;DHT22;11069;48.988;8.450;2023-12-20T01:45:36;5.90;99.90
21815;DHT22;11069;48.988;8.450;2023-12-20T01:48:02;5.90;99.90
21815;DHT22;11069;48.988;8.450;2023-12-20T01:50:30;5.90;99.90
21815;DHT22;11069;48.988;8.450;2023-12-20T01:52:58;5.90;99.90
21815;DHT22;11069;48.988;8.450;2023-12-20T01:55:27;5.90;99.90
21815;DHT22;11069;48.988;8.450;2023-12-20T01:57:55;5.90;99.90
21815;DHT22;11069;48.988;8.450;2023-12-20T02:00:22;5.90;99.90
21815;DHT22;11069;48.988;8.450;2023-12-20T02:02:53;5.90;99.90
21815;DHT22;11069;48.988;8.450;2023-12-20T02:05:19;5.90;99.90
21815;DHT22;11069;48.988;8.450;2023-12-20T02:07:45;5.90;99.90
21815;DHT22;11069;48.988;8.450;2023-12-20T02:10:11;5.90;99.90
21815;DHT22;11069;48.988;8.450;2023-12-20T02:12:36;5.90;99.90
21815;DHT22;11069;48.988;8.450;2023-12-20T02:15:02;5.90;99.90
21815;DHT22;11069;48.988;8.450;2023-12-20T02:17:29;5.90;99.90
21815;DHT22;11069;48.988;8.450;2023-12-20T02:19:55;5.90;99.90
21815;DHT22;11069;48.988;8.450;2023-12-20T02:22:20;5.90;99.90
21815;DHT22;11069;48.988;8.450;2023-12-20T02:24:46;6.00;99.90
21815;DHT22;11069;48.988;8.450;2023-12-20T02:27:12;5.90;99.90
21815;DHT22;11069;48.988;8.450;2023-12-20T02:29:38;6.00;99.90
21815;DHT22;11069;48.988;8.450;2023-12-20T02:32:03;5.90;99.90
21815;DHT22;11069;48.988;8.450;2023-12-20T02:34:29;5.90;99.90
21815;DHT22;11069;48.988;8.450;2023-12-20T02:36:55;5.90;99.90
21815;DHT22;11069;48.988;8.450;2023-12-20T02:39:21;6.00;99.90
21815;DHT22;11069;48.988;8.450;2023-12-20T02:41:48;6.00;99.90
21815;DHT22;11069;48.988;8.450;2023-12-20T02:44:13;6.00;99.90
21815;DHT22;11069;48.988;8.450;2023-12-20T02:46:39;6.00;99.90
21815;DHT22;11069;48.988;8.450;2023-12-20T02:49:05;6.00;99.90
21815;DHT22;11069;48.988;8.450;2023-12-20T02:51:31;6.00;99.90
21815;DHT22;11069;48.988;8.450;2023-12-20T02:53:56;6.00;99.90
21815;DHT22;11069;48.988;8.450;2023-12-20T02:56:22;6.00;99.90
21815;DHT22;11069;48.988;8.450;2023-12-20T02:58:47;6.00;99.90
21815;DHT22;11069;48.988;8.450;2023-12-20T03:01:13;6.00;99.90
21815;DHT22;11069;48.988;8.450;2023-12-20T03:03:39;6.00;99.90
21815;DHT22;11069;48.988;8.450;2023-12-20T03:06:04;6.00;99.90
21815;DHT22;11069;48.988;8.450;2023-12-20T03:08:30;6.00;99.90
21815;DHT22;11069;48.988;8.450;2023-12-20T03:10:55;6.00;99.90
21815;DHT22;11069;48.988;8.450;2023-12-20T03:13:21;6.00;99.90
21815;DHT22;11069;48.988;8.450;2023-12-20T03:15:46;6.00;99.90
21815;DHT22;11069;48.988;8.450;2023-12-20T03:18:12;6.00;99.90
21815;DHT22;11069;48.988;8.450;2023-12-20T03:20:38;5.90;99.90
21815;DHT22;11069;48.988;8.450;2023-12-20T03:23:03;6.00;99.90
21815;DHT22;11069;48.988;8.450;2023-12-20T03:25:29;5.90;99.90
21815;DHT22;11069;48.988;8.450;2023-12-20T03:27:55;5.90;99.90
21815;DHT22;11069;48.988;8.450;2023-12-20T03:30:21;5.90;99.90
21815;DHT22;11069;48.988;8.450;2023-12-20T03:32:47;5.80;99.90
21815;DHT22;11069;48.988;8.450;2023-12-20T03:35:12;5.90;99.90
21815;DHT22;11069;48.988;8.450;2023-12-20T03:37:38;5.90;99.90
21815;DHT22;11069;48.988;8.450;2023-12-20T03:40:04;5.90;99.90
21815;DHT22;11069;48.988;8.450;2023-12-20T03:42:30;5.90;99.90
21815;DHT22;11069;48.988;8.450;2023-12-20T03:44:56;5.90;99.90
21815;DHT22;11069;48.988;8.450;2023-12-20T03:47:21;5.90;99.90
21815;DHT22;11069;48.988;8.450;2023-12-20T03:49:47;5.90;99.90
21815;DHT22;11069;48.988;8.450;2023-12-20T03:52:13;5.90;99.90
21815;DHT22;11069;48.988;8.450;2023-12-20T03:54:38;5.90;99.90
21815;DHT22;11069;48.988;8.450;2023-12-20T03:57:04;5.90;99.90
21815;DHT22;11069;48.988;8.450;2023-12-20T03:59:30;6.00;99.90
21815;DHT22;11069;48.988;8.450;2023-12-20T04:01:59;6.00;99.90
21815;DHT22;11069;48.988;8.450;2023-12-20T04:04:25;6.00;99.90
21815;DHT22;11069;48.988;8.450;2023-12-20T04:06:50;6.00;99.90
21815;DHT22;11069;48.988;8.450;2023-12-20T04:09:16;6.00;99.90
21815;DHT22;11069;48.988;8.450;2023-12-20T04:11:41;6.00;99.90
21815;DHT22;11069;48.988;8.450;2023-12-20T04:14:07;6.00;99.90
21815;DHT22;11069;48.988;8.450;2023-12-20T04:16:33;6.00;99.90
21815;DHT22;11069;48.988;8.450;2023-12-20T04:18:58;6.00;99.90
21815;DHT22;11069;48.988;8.450;2023-12-20T04:21:24;6.10;99.90
21815;DHT22;11069;48.988;8.450;2023-12-20T04:23:50;6.00;99.90
21815;DHT22;11069;48.988;8.450;2023-12-20T04:26:15;6.10;99.90
21815;DHT22;11069;48.988;8.450;2023-12-20T04:28:41;6.10;99.90
21815;DHT22;11069;48.988;8.450;2023-12-20T04:31:06;6.00;99.90
21815;DHT22;11069;48.988;8.450;2023-12-20T04:33:32;6.00;99.90
21815;DHT22;11069;48.988;8.450;2023-12-20T04:35:58;6.00;99.90
21815;DHT22;11069;48.988;8.450;2023-12-20T04:38:23;6.10;99.90
21815;DHT22;11069;48.988;8.450;2023-12-20T04:40:49;6.00;99.90
21815;DHT22;11069;48.988;8.450;2023-12-20T04:43:14;6.00;99.90
21815;DHT22;11069;48.988;8.450;2023-12-20T04:45:40;6.00;99.90
21815;DHT22;11069;48.988;8.450;2023-12-20T04:48:06;6.10;99.90
21815;DHT22;11069;48.988;8.450;2023-12-20T04:50:31;6.10;99.90
21815;DHT22;11069;48.988;8.450;2023-12-20T04:52:57;6.10;99.90
21815;DHT22;11069;48.988;8.450;2023-12-20T04:55:22;6.10;99.90
21815;DHT22;11069;48.988;8.450;2023-12-20T04:57:48;6.10;99.90
21815;DHT22;11069;48.988;8.450;2023-12-20T05:00:14;6.10;99.90
21815;DHT22;11069;48.988;8.450;2023-12-20T05:02:40;6.20;99.90
21815;DHT22;11069;48.988;8.450;2023-12-20T05:05:06;6.10;99.90
21815;DHT22;11069;48.988;8.450;2023-12-20T05:07:32;6.10;99.90
21815;DHT22;11069;48.988;8.450;2023-12-20T05:09:58;6.10;99.90
21815;DHT22;11069;48.988;8.450;2023-12-20T05:12:24;6.10;99.90
21815;DHT22;11069;48.988;8.450;2023-12-20T05:14:50;6.10;99.90
21815;DHT22;11069;48.988;8.450;2023-12-20T05:17:16;6.10;99.90
21815;DHT22;11069;48.988;8.450;2023-12-20T05:19:42;6.10;99.90
21815;DHT22;11069;48.988;8.450;2023-12-20T05:22:07;6.10;99.90
21815;DHT22;11069;48.988;8.450;2023-12-20T05:24:33;6.10;99.90
21815;DHT22;11069;48.988;8.450;2023-12-20T05:26:58;6.10;99.90
21815;DHT22;11069;48.988;8.450;2023-12-20T05:29:24;6.10;99.90
21815;DHT22;11069;48.988;8.450;2023-12-20T05:31:49;6.10;99.90
21815;DHT22;11069;48.988;8.450;2023-12-20T05:34:15;6.10;99.90
21815;DHT22;11069;48.988;8.450;2023-12-20T05:36:40;6.20;99.90
21815;DHT22;11069;48.988;8.450;2023-12-20T05:39:06;6.20;99.90
21815;DHT22;11069;48.988;8.450;2023-12-20T05:41:33;6.20;99.90
21815;DHT22;11069;48.988;8.450;2023-12-20T05:43:59;6.20;99.90
21815;DHT22;11069;48.988;8.450;2023-12-20T05:46:25;6.20;99.90
21815;DHT22;11069;48.988;8.450;2023-12-20T05:48:50;6.20;99.90
21815;DHT22;11069;48.988;8.450;2023-12-20T05:51:17;6.20;99.90
21815;DHT22;11069;48.988;8.450;2023-12-20T05:53:42;6.20;99.90
21815;DHT22;11069;48.988;8.450;2023-12-20T05:56:09;6.10;99.90
21815;DHT22;11069;48.988;8.450;2023-12-20T05:58:34;6.10;99.90
21815;DHT22;11069;48.988;8.450;2023-12-20T06:01:00;6.20;99.90
21815;DHT22;11069;48.988;8.450;2023-12-20T06:03:26;6.20;99.90
21815;DHT22;11069;48.988;8.450;2023-12-20T06:05:51;6.20;99.90
21815;DHT22;11069;48.988;8.450;2023-12-20T06:08:17;6.20;99.90
21815;DHT22;11069;48.988;8.450;2023-12-20T06:10:43;6.20;99.90
21815;DHT22;11069;48.988;8.450;2023-12-20T06:13:08;6.20;99.90
21815;DHT22;11069;48.988;8.450;2023-12-20T06:15:34;6.20;99.90
21815;DHT22;11069;48.988;8.450;2023-12-20T06:18:00;6.20;99.90
21815;DHT22;11069;48.988;8.450;2023-12-20T06:20:26;6.20;99.90
21815;DHT22;11069;48.988;8.450;2023-12-20T06:22:52;6.30;99.90
21815;DHT22;11069;48.988;8.450;2023-12-20T06:25:17;6.30;99.90
21815;DHT22;11069;48.988;8.450;2023-12-20T06:27:43;6.30;99.90
21815;DHT22;11069;48.988;8.450;2023-12-20T06:30:08;6.30;99.90
21815;DHT22;11069;48.988;8.450;2023-12-20T06:32:35;6.20;99.90
21815;DHT22;11069;48.988;8.450;2023-12-20T06:35:00;6.20;99.90
21815;DHT22;11069;48.988;8.450;2023-12-20T06:37:26;6.20;99.90
21815;DHT22;11069;48.988;8.450;2023-12-20T06:39:52;6.20;99.90
21815;DHT22;11069;48.988;8.450;2023-12-20T06:42:18;6.20;99.90
21815;DHT22;11069;48.988;8.450;2023-12-20T06:44:44;6.20;99.90
21815;DHT22;11069;48.988;8.450;2023-12-20T06:47:09;6.20;99.90
21815;DHT22;11069;48.988;8.450;2023-12-20T06:49:35;6.20;99.90
21815;DHT22;11069;48.988;8.450;2023-12-20T06:52:00;6.20;99.90
21815;DHT22;11069;48.988;8.450;2023-12-20T06:54:26;6.20;99.90
21815;DHT22;11069;48.988;8.450;2023-12-20T06:56:51;6.20;99.90
21815;DHT22;11069;48.988;8.450;2023-12-20T06:59:17;6.20;99.90
21815;DHT22;11069;48.988;8.450;2023-12-20T07:01:42;6.20;99.90
21815;DHT22;11069;48.988;8.450;2023-12-20T07:04:12;6.10;99.90
21815;DHT22;11069;48.988;8.450;2023-12-20T07:06:38;6.10;99.90
21815;DHT22;11069;48.988;8.450;2023-12-20T07:09:03;6.00;99.90
21815;DHT22;11069;48.988;8.450;2023-12-20T07:11:29;5.90;99.90
21815;DHT22;11069;48.988;8.450;2023-12-20T07:13:54;5.70;99.90
21815;DHT22;11069;48.988;8.450;2023-12-20T07:16:20;5.60;99.90
21815;DHT22;11069;48.988;8.450;2023-12-20T07:18:46;5.50;99.90
21815;DHT22;11069;48.988;8.450;2023-12-20T07:21:12;5.40;99.90
21815;DHT22;11069;48.988;8.450;2023-12-20T07:23:37;5.40;99.90
21815;DHT22;11069;48.988;8.450;2023-12-20T07:26:03;5.50;99.90
21815;DHT22;11069;48.988;8.450;2023-12-20T07:28:29;5.50;99.90
21815;DHT22;11069;48.988;8.450;2023-12-20T07:30:55;5.50;99.90
21815;DHT22;11069;48.988;8.450;2023-12-20T07:33:21;5.50;99.90
21815;DHT22;11069;48.988;8.450;2023-12-20T07:35:47;5.70;99.90
21815;DHT22;11069;48.988;8.450;2023-12-20T07:38:12;5.70;99.90
21815;DHT22;11069;48.988;8.450;2023-12-20T07:40:38;5.80;99.90
21815;DHT22;11069;48.988;8.450;2023-12-20T07:43:04;5.80;99.90
21815;DHT22;11069;48.988;8.450;2023-12-20T07:45:30;5.80;99.90
21815;DHT22;11069;48.988;8.450;2023-12-20T07:47:55;5.80;99.90
21815;DHT22;11069;48.988;8.450;2023-12-20T07:50:21;5.70;99.90
21815;DHT22;11069;48.988;8.450;2023-12-20T07:52:46;5.60;99.90
21815;DHT22;11069;48.988;8.450;2023-12-20T07:55:12;5.50;99.90
21815;DHT22;11069;48.988;8.450;2023-12-20T07:57:38;5.50;99.90
21815;DHT22;11069;48.988;8.450;2023-12-20T08:00:04;5.50;99.90
21815;DHT22;11069;48.988;8.450;2023-12-20T08:02:30;5.50;99.90
21815;DHT22;11069;48.988;8.450;2023-12-20T08:04:56;5.60;99.90
21815;DHT22;11069;48.988;8.450;2023-12-20T08:07:21;5.70;99.90
21815;DHT22;11069;48.988;8.450;2023-12-20T08:09:47;5.80;99.90
21815;DHT22;11069;48.988;8.450;2023-12-20T08:12:13;5.70;99.90
21815;DHT22;11069;48.988;8.450;2023-12-20T08:14:38;5.80;99.90
21815;DHT22;11069;48.988;8.450;2023-12-20T08:17:04;5.70;99.90
21815;DHT22;11069;48.988;8.450;2023-12-20T08:19:29;5.60;99.90
21815;DHT22;11069;48.988;8.450;2023-12-20T08:21:55;5.60;99.90
21815;DHT22;11069;48.988;8.450;2023-12-20T08:24:20;5.70;99.90
21815;DHT22;11069;48.988;8.450;2023-12-20T08:26:46;5.60;99.90
21815;DHT22;11069;48.988;8.450;2023-12-20T08:29:15;5.60;99.90
21815;DHT22;11069;48.988;8.450;2023-12-20T08:31:40;5.70;99.90
21815;DHT22;11069;48.988;8.450;2023-12-20T08:34:06;5.90;99.90
21815;DHT22;11069;48.988;8.450;2023-12-20T08:36:31;6.00;99.90
21815;DHT22;11069;48.988;8.450;2023-12-20T08:38:57;6.20;99.90
21815;DHT22;11069;48.988;8.450;2023-12-20T08:41:22;6.40;99.90
21815;DHT22;11069;48.988;8.450;2023-12-20T08:43:48;6.70;99.90
21815;DHT22;11069;48.988;8.450;2023-12-20T08:46:15;7.00;99.90
21815;DHT22;11069;48.988;8.450;2023-12-20T08:48:40;7.30;99.90
21815;DHT22;11069;48.988;8.450;2023-12-20T08:51:06;7.70;99.90
21815;DHT22;11069;48.988;8.450;2023-12-20T08:53:33;8.20;99.90
21815;DHT22;11069;48.988;8.450;2023-12-20T08:55:59;8.50;99.90
21815;DHT22;11069;48.988;8.450;2023-12-20T08:58:27;8.70;99.90
21815;DHT22;11069;48.988;8.450;2023-12-20T09:00:53;9.10;99.90
21815;DHT22;11069;48.988;8.450;2023-12-20T09:03:19;8.90;99.90
21815;DHT22;11069;48.988;8.450;2023-12-20T09:05:44;8.60;99.90
21815;DHT22;11069;48.988;8.450;2023-12-20T09:08:10;8.90;99.90
21815;DHT22;11069;48.988;8.450;2023-12-20T09:10:37;8.70;99.90
21815;DHT22;11069;48.988;8.450;2023-12-20T09:13:02;9.20;99.90
21815;DHT22;11069;48.988;8.450;2023-12-20T09:15:29;9.30;99.90
21815;DHT22;11069;48.988;8.450;2023-12-20T09:17:55;9.50;99.90
21815;DHT22;11069;48.988;8.450;2023-12-20T09:20:21;9.40;99.90
21815;DHT22;11069;48.988;8.450;2023-12-20T09:22:48;9.40;99.90
21815;DHT22;11069;48.988;8.450;2023-12-20T09:25:14;9.80;99.90
21815;DHT22;11069;48.988;8.450;2023-12-20T09:27:41;9.40;99.90
21815;DHT22;11069;48.988;8.450;2023-12-20T09:30:07;8.80;99.90
21815;DHT22;11069;48.988;8.450;2023-12-20T09:32:32;8.10;99.90
21815;DHT22;11069;48.988;8.450;2023-12-20T09:34:58;8.20;99.90
21815;DHT22;11069;48.988;8.450;2023-12-20T09:37:27;8.30;99.90
21815;DHT22;11069;48.988;8.450;2023-12-20T09:39:53;7.90;99.90
21815;DHT22;11069;48.988;8.450;2023-12-20T09:42:24;7.60;99.90
21815;DHT22;11069;48.988;8.450;2023-12-20T09:44:52;7.30;99.90
21815;DHT22;11069;48.988;8.450;2023-12-20T09:47:19;7.10;99.90
21815;DHT22;11069;48.988;8.450;2023-12-20T09:49:48;6.90;99.90
21815;DHT22;11069;48.988;8.450;2023-12-20T09:52:15;7.00;99.90
21815;DHT22;11069;48.988;8.450;2023-12-20T09:54:42;7.10;99.90
21815;DHT22;11069;48.988;8.450;2023-12-20T09:57:09;7.10;99.90
21815;DHT22;11069;48.988;8.450;2023-12-20T09:59:35;7.00;99.90
21815;DHT22;11069;48.988;8.450;2023-12-20T10:02:01;7.00;99.90
21815;DHT22;11069;48.988;8.450;2023-12-20T10:04:32;7.00;99.90
21815;DHT22;11069;48.988;8.450;2023-12-20T10:07:02;7.00;99.90
21815;DHT22;11069;48.988;8.450;2023-12-20T10:09:32;7.10;99.90
21815;DHT22;11069;48.988;8.450;2023-12-20T10:11:58;7.30;99.90
21815;DHT22;11069;48.988;8.450;2023-12-20T10:14:24;7.30;99.90
21815;DHT22;11069;48.988;8.450;2023-12-20T10:16:49;7.50;99.90
21815;DHT22;11069;48.988;8.450;2023-12-20T10:19:17;7.40;99.90
21815;DHT22;11069;48.988;8.450;2023-12-20T10:21:43;7.30;99.90
21815;DHT22;11069;48.988;8.450;2023-12-20T10:24:16;7.30;99.90
21815;DHT22;11069;48.988;8.450;2023-12-20T10:26:42;7.20;99.90
21815;DHT22;11069;48.988;8.450;2023-12-20T10:29:08;7.10;99.90
21815;DHT22;11069;48.988;8.450;2023-12-20T10:31:34;7.10;99.90
21815;DHT22;11069;48.988;8.450;2023-12-20T10:34:02;7.00;99.90
21815;DHT22;11069;48.988;8.450;2023-12-20T10:36:30;7.00;99.90
21815;DHT22;11069;48.988;8.450;2023-12-20T10:38:56;6.90;99.90
21815;DHT22;11069;48.988;8.450;2023-12-20T10:41:32;6.90;99.90
21815;DHT22;11069;48.988;8.450;2023-12-20T10:44:02;7.00;99.90
21815;DHT22;11069;48.988;8.450;2023-12-20T10:46:29;7.00;99.90
21815;DHT22;11069;48.988;8.450;2023-12-20T10:48:56;7.00;99.90
21815;DHT22;11069;48.988;8.450;2023-12-20T10:51:23;7.00;99.90
21815;DHT22;11069;48.988;8.450;2023-12-20T10:53:50;7.00;99.90
21815;DHT22;11069;48.988;8.450;2023-12-20T10:56:17;7.00;99.90
21815;DHT22;11069;48.988;8.450;2023-12-20T10:58:44;7.00;99.90
21815;DHT22;11069;48.988;8.450;2023-12-20T11:01:15;7.10;99.90
21815;DHT22;11069;48.988;8.450;2023-12-20T11:04:01;7.00;99.90
21815;DHT22;11069;48.988;8.450;2023-12-20T11:06:47;7.00;99.90
21815;DHT22;11069;48.988;8.450;2023-12-20T11:09:16;7.10;99.90
21815;DHT22;11069;48.988;8.450;2023-12-20T11:14:34;7.40;99.90
21815;DHT22;11069;48.988;8.450;2023-12-20T11:17:10;7.50;99.90
21815;DHT22;11069;48.988;8.450;2023-12-20T11:22:28;7.60;99.90
21815;DHT22;11069;48.988;8.450;2023-12-20T11:24:59;7.60;99.90
21815;DHT22;11069;48.988;8.450;2023-12-20T11:27:27;7.60;99.90
21815;DHT22;11069;48.988;8.450;2023-12-20T11:29:55;7.60;99.90
21815;DHT22;11069;48.988;8.450;2023-12-20T11:37:38;7.50;99.90
21815;DHT22;11069;48.988;8.450;2023-12-20T11:40:11;7.50;99.90
21815;DHT22;11069;48.988;8.450;2023-12-20T11:42:43;7.40;99.90
21815;DHT22;11069;48.988;8.450;2023-12-20T11:45:18;7.40;99.90
21815;DHT22;11069;48.988;8.450;2023-12-20T11:47:48;7.50;99.90
21815;DHT22;11069;48.988;8.450;2023-12-20T11:50:17;7.50;99.90
21815;DHT22;11069;48.988;8.450;2023-12-20T11:52:43;7.30;99.90
21815;DHT22;11069;48.988;8.450;2023-12-20T11:55:09;7.10;99.90
21815;DHT22;11069;48.988;8.450;2023-12-20T11:57:36;7.00;99.90
21815;DHT22;11069;48.988;8.450;2023-12-20T12:00:03;6.90;99.90
21815;DHT22;11069;48.988;8.450;2023-12-20T12:02:29;6.80;99.90
21815;DHT22;11069;48.988;8.450;2023-12-20T12:04:55;6.70;99.90
21815;DHT22;11069;48.988;8.450;2023-12-20T12:07:22;6.70;99.90
21815;DHT22;11069;48.988;8.450;2023-12-20T12:09:47;6.80;99.90
21815;DHT22;11069;48.988;8.450;2023-12-20T12:12:13;7.00;99.90
21815;DHT22;11069;48.988;8.450;2023-12-20T12:14:39;7.10;99.90
21815;DHT22;11069;48.988;8.450;2023-12-20T12:17:14;7.40;99.90
21815;DHT22;11069;48.988;8.450;2023-12-20T12:19:40;7.50;99.90
21815;DHT22;11069;48.988;8.450;2023-12-20T12:22:07;7.50;99.90
21815;DHT22;11069;48.988;8.450;2023-12-20T12:24:36;7.50;99.90
21815;DHT22;11069;48.988;8.450;2023-12-20T12:27:02;7.60;99.90
21815;DHT22;11069;48.988;8.450;2023-12-20T12:29:27;7.50;99.90
21815;DHT22;11069;48.988;8.450;2023-12-20T12:31:53;7.50;99.90
21815;DHT22;11069;48.988;8.450;2023-12-20T12:34:19;7.50;99.90
21815;DHT22;11069;48.988;8.450;2023-12-20T12:36:44;7.40;99.90
21815;DHT22;11069;48.988;8.450;2023-12-20T12:39:15;7.30;99.90
21815;DHT22;11069;48.988;8.450;2023-12-20T12:41:43;7.30;99.90
21815;DHT22;11069;48.988;8.450;2023-12-20T12:44:09;7.20;99.90
21815;DHT22;11069;48.988;8.450;2023-12-20T12:46:34;7.30;99.90
21815;DHT22;11069;48.988;8.450;2023-12-20T12:49:00;7.20;99.90
21815;DHT22;11069;48.988;8.450;2023-12-20T12:51:26;7.20;99.90
21815;DHT22;11069;48.988;8.450;2023-12-20T12:53:52;7.20;99.90
21815;DHT22;11069;48.988;8.450;2023-12-20T12:56:18;7.20;99.90
21815;DHT22;11069;48.988;8.450;2023-12-20T12:58:43;7.20;99.90
21815;DHT22;11069;48.988;8.450;2023-12-20T13:01:09;7.10;99.90
21815;DHT22;11069;48.988;8.450;2023-12-20T13:03:35;7.00;99.90
21815;DHT22;11069;48.988;8.450;2023-12-20T13:06:01;7.00;99.90
21815;DHT22;11069;48.988;8.450;2023-12-20T13:08:27;7.10;99.90
21815;DHT22;11069;48.988;8.450;2023-12-20T13:10:53;7.00;99.90
21815;DHT22;11069;48.988;8.450;2023-12-20T13:13:18;7.00;99.90
21815;DHT22;11069;48.988;8.450;2023-12-20T13:15:44;7.00;99.90
21815;DHT22;11069;48.988;8.450;2023-12-20T13:18:17;7.00;99.90
21815;DHT22;11069;48.988;8.450;2023-12-20T13:20:46;7.00;99.90
21815;DHT22;11069;48.988;8.450;2023-12-20T13:23:11;7.00;99.90
21815;DHT22;11069;48.988;8.450;2023-12-20T13:25:37;6.90;99.90
21815;DHT22;11069;48.988;8.450;2023-12-20T13:28:03;7.00;99.90
21815;DHT22;11069;48.988;8.450;2023-12-20T13:30:29;6.90;99.90
21815;DHT22;11069;48.988;8.450;2023-12-20T13:32:55;7.00;99.90
21815;DHT22;11069;48.988;8.450;2023-12-20T13:35:20;7.00;99.90
21815;DHT22;11069;48.988;8.450;2023-12-20T13:37:46;6.90;99.90
21815;DHT22;11069;48.988;8.450;2023-12-20T13:40:12;6.80;99.90
21815;DHT22;11069;48.988;8.450;2023-12-20T13:42:39;6.80;99.90
21815;DHT22;11069;48.988;8.450;2023-12-20T13:45:05;6.80;99.90
21815;DHT22;11069;48.988;8.450;2023-12-20T13:47:32;6.70;99.90
21815;DHT22;11069;48.988;8.450;2023-12-20T13:49:58;6.60;99.90
21815;DHT22;11069;48.988;8.450;2023-12-20T13:52:23;6.60;99.90
21815;DHT22;11069;48.988;8.450;2023-12-20T13:54:49;6.70;99.90
21815;DHT22;11069;48.988;8.450;2023-12-20T13:57:14;6.70;99.90
21815;DHT22;11069;48.988;8.450;2023-12-20T13:59:40;6.70;99.90
21815;DHT22;11069;48.988;8.450;2023-12-20T14:02:06;6.80;99.90
21815;DHT22;11069;48.988;8.450;2023-12-20T14:04:31;6.80;99.90
21815;DHT22;11069;48.988;8.450;2023-12-20T14:06:57;6.80;99.90
21815;DHT22;11069;48.988;8.450;2023-12-20T14:09:23;6.90;99.90
21815;DHT22;11069;48.988;8.450;2023-12-20T14:11:49;6.90;99.90
21815;DHT22;11069;48.988;8.450;2023-12-20T14:14:14;6.90;99.90
21815;DHT22;11069;48.988;8.450;2023-12-20T14:16:40;6.80;99.90
21815;DHT22;11069;48.988;8.450;2023-12-20T14:19:06;6.90;99.90
21815;DHT22;11069;48.988;8.450;2023-12-20T14:21:34;6.90;99.90
21815;DHT22;11069;48.988;8.450;2023-12-20T14:24:01;6.80;99.90
21815;DHT22;11069;48.988;8.450;2023-12-20T14:26:29;6.80;99.90
21815;DHT22;11069;48.988;8.450;2023-12-20T14:28:55;6.70;99.90
21815;DHT22;11069;48.988;8.450;2023-12-20T14:31:21;6.70;99.90
21815;DHT22;11069;48.988;8.450;2023-12-20T14:33:49;6.70;99.90
21815;DHT22;11069;48.988;8.450;2023-12-20T14:36:17;6.70;99.90
21815;DHT22;11069;48.988;8.450;2023-12-20T14:38:43;6.70;99.90
21815;DHT22;11069;48.988;8.450;2023-12-20T14:41:09;6.70;99.90
21815;DHT22;11069;48.988;8.450;2023-12-20T14:43:35;6.70;99.90
21815;DHT22;11069;48.988;8.450;2023-12-20T14:46:00;6.60;99.90
21815;DHT22;11069;48.988;8.450;2023-12-20T14:48:26;6.50;99.90
21815;DHT22;11069;48.988;8.450;2023-12-20T14:50:53;6.40;99.90
21815;DHT22;11069;48.988;8.450;2023-12-20T14:53:19;6.40;99.90
21815;DHT22;11069;48.988;8.450;2023-12-20T14:55:45;6.40;99.90
21815;DHT22;11069;48.988;8.450;2023-12-20T14:58:11;6.40;99.90
21815;DHT22;11069;48.988;8.450;2023-12-20T15:00:37;6.40;99.90
21815;DHT22;11069;48.988;8.450;2023-12-20T15:03:03;6.40;99.90
21815;DHT22;11069;48.988;8.450;2023-12-20T15:05:30;6.40;99.90
21815;DHT22;11069;48.988;8.450;2023-12-20T15:07:56;6.40;99.90
21815;DHT22;11069;48.988;8.450;2023-12-20T15:10:22;6.40;99.90
21815;DHT22;11069;48.988;8.450;2023-12-20T15:12:47;6.40;99.90
21815;DHT22;11069;48.988;8.450;2023-12-20T15:15:13;6.40;99.90
21815;DHT22;11069;48.988;8.450;2023-12-20T15:17:39;6.40;99.90
21815;DHT22;11069;48.988;8.450;2023-12-20T15:20:05;6.40;99.90
21815;DHT22;11069;48.988;8.450;2023-12-20T15:22:31;6.50;99.90
21815;DHT22;11069;48.988;8.450;2023-12-20T15:24:59;6.50;99.90
21815;DHT22;11069;48.988;8.450;2023-12-20T15:27:25;6.50;99.90
21815;DHT22;11069;48.988;8.450;2023-12-20T15:29:50;6.50;99.90
21815;DHT22;11069;48.988;8.450;2023-12-20T15:32:17;6.50;99.90
21815;DHT22;11069;48.988;8.450;2023-12-20T15:34:44;6.60;99.90
21815;DHT22;11069;48.988;8.450;2023-12-20T15:37:10;6.60;99.90
21815;DHT22;11069;48.988;8.450;2023-12-20T15:39:36;6.70;99.90
21815;DHT22;11069;48.988;8.450;2023-12-20T15:42:01;6.60;99.90
21815;DHT22;11069;48.988;8.450;2023-12-20T15:44:27;6.70;99.90
21815;DHT22;11069;48.988;8.450;2023-12-20T15:46:55;6.70;99.90
21815;DHT22;11069;48.988;8.450;2023-12-20T15:49:20;6.60;99.90